sensor_id;sensor_type;location;lat;lon;timestamp;temperature;humidity
9383;DHT22;4731;49.708;10.816;2022-12-18T00:02:22;-12.10;99.90
9383;DHT22;4731;49.708;10.816;2022-12-18T00:04:49;-12.10;99.90
9383;DHT22;4731;49.708;10.816;2022-12-18T00:07:15;-12.20;99.90
9383;DHT22;4731;49.708;10.816;2022-12-18T00:09:42;-12.30;99.90
9383;DHT22;4731;49.708;10.816;2022-12-18T00:12:09;-12.30;99.90
9383;DHT22;4731;49.708;10.816;2022-12-18T00:14:36;-11.80;99.90
9383;DHT22;4731;49.708;10.816;2022-12-18T00:17:04;-12.30;99.90
9383;DHT22;4731;49.708;10.816;2022-12-18T00:19:31;-12.30;99.90
9383;DHT22;4731;49.708;10.816;2022-12-18T00:21:58;-9.90;99.90
9383;DHT22;4731;49.708;10.816;2022-12-18T00:24:25;-12.30;99.90
9383;DHT22;4731;49.708;10.816;2022-12-18T00:26:51;-12.30;99.90
9383;DHT22;4731;49.708;10.816;2022-12-18T00:29:18;-12.20;99.90
9383;DHT22;4731;49.708;10.816;2022-12-18T00:31:45;-12.30;99.90
9383;DHT22;4731;49.708;10.816;2022-12-18T00:36:41;-12.30;99.90
9383;DHT22;4731;49.708;10.816;2022-12-18T00:39:09;-12.20;99.90
9383;DHT22;4731;49.708;10.816;2022-12-18T00:41:36;-12.20;99.90
9383;DHT22;4731;49.708;10.816;2022-12-18T00:44:20;-12.20;99.90
9383;DHT22;4731;49.708;10.816;2022-12-18T00:46:47;-12.20;99.90
9383;DHT22;4731;49.708;10.816;2022-12-18T00:49:17;-12.20;99.90
9383;DHT22;4731;49.708;10.816;2022-12-18T00:51:44;-9.50;99.90
9383;DHT22;4731;49.708;10.816;2022-12-18T00:54:11;-11.90;99.90
9383;DHT22;4731;49.708;10.816;2022-12-18T00:56:39;-12.10;99.90
9383;DHT22;4731;49.708;10.816;2022-12-18T00:59:06;-12.20;99.90
9383;DHT22;4731;49.708;10.816;2022-12-18T01:01:33;-12.20;99.90
9383;DHT22;4731;49.708;10.816;2022-12-18T01:04:00;-12.30;99.90
9383;DHT22;4731;49.708;10.816;2022-12-18T01:06:29;-12.20;99.90
9383;DHT22;4731;49.708;10.816;2022-12-18T01:08:56;-12.20;99.90
9383;DHT22;4731;49.708;10.816;2022-12-18T01:11:23;-12.00;99.90
9383;DHT22;4731;49.708;10.816;2022-12-18T01:13:52;-12.10;99.90
9383;DHT22;4731;49.708;10.816;2022-12-18T01:16:19;-12.10;99.90
9383;DHT22;4731;49.708;10.816;2022-12-18T01:18:46;-12.10;99.90
9383;DHT22;4731;49.708;10.816;2022-12-18T01:21:15;-12.00;99.90
9383;DHT22;4731;49.708;10.816;2022-12-18T01:23:43;-12.00;99.90
9383;DHT22;4731;49.708;10.816;2022-12-18T01:26:13;-12.10;99.90
9383;DHT22;4731;49.708;10.816;2022-12-18T01:28:40;-12.00;99.90
9383;DHT22;4731;49.708;10.816;2022-12-18T01:31:16;-12.30;99.90
9383;DHT22;4731;49.708;10.816;2022-12-18T01:33:44;-12.30;99.90
9383;DHT22;4731;49.708;10.816;2022-12-18T01:36:21;-12.20;99.90
9383;DHT22;4731;49.708;10.816;2022-12-18T01:38:50;-13.80;99.90
9383;DHT22;4731;49.708;10.816;2022-12-18T01:41:21;-11.00;99.90
9383;DHT22;4731;49.708;10.816;2022-12-18T01:43:50;-12.50;99.90
9383;DHT22;4731;49.708;10.816;2022-12-18T01:46:19;-12.40;99.90
9383;DHT22;4731;49.708;10.816;2022-12-18T01:48:48;-12.30;99.90
9383;DHT22;4731;49.708;10.816;2022-12-18T01:51:16;-12.30;99.90
9383;DHT22;4731;49.708;10.816;2022-12-18T01:53:44;-11.90;99.90
9383;DHT22;4731;49.708;10.816;2022-12-18T01:56:17;-11.00;99.90
9383;DHT22;4731;49.708;10.816;2022-12-18T01:58:50;-11.90;99.90
9383;DHT22;4731;49.708;10.816;2022-12-18T02:01:20;-12.00;99.90
9383;DHT22;4731;49.708;10.816;2022-12-18T02:03:47;-12.10;99.90
9383;DHT22;4731;49.708;10.816;2022-12-18T02:06:16;-12.10;99.90
9383;DHT22;4731;49.708;10.816;2022-12-18T02:08:58;-12.10;99.90
9383;DHT22;4731;49.708;10.816;2022-12-18T02:11:37;-12.30;99.90
9383;DHT22;4731;49.708;10.816;2022-12-18T02:14:16;-12.30;99.90
9383;DHT22;4731;49.708;10.816;2022-12-18T02:16:46;-12.30;99.90
9383;DHT22;4731;49.708;10.816;2022-12-18T02:19:34;-12.20;99.90
9383;DHT22;4731;49.708;10.816;2022-12-18T02:22:21;-12.20;99.90
9383;DHT22;4731;49.708;10.816;2022-12-18T02:25:05;-12.20;99.90
9383;DHT22;4731;49.708;10.816;2022-12-18T02:27:38;-12.30;99.90
9383;DHT22;4731;49.708;10.816;2022-12-18T02:30:07;-12.30;99.90
9383;DHT22;4731;49.708;10.816;2022-12-18T02:32:37;-10.50;99.90
9383;DHT22;4731;49.708;10.816;2022-12-18T02:35:08;-12.10;99.90
9383;DHT22;4731;49.708;10.816;2022-12-18T02:37:37;-10.60;99.90
9383;DHT22;4731;49.708;10.816;2022-12-18T02:40:07;-12.10;99.90
9383;DHT22;4731;49.708;10.816;2022-12-18T02:42:36;-12.00;99.90
9383;DHT22;4731;49.708;10.816;2022-12-18T02:45:04;-11.80;99.90
9383;DHT22;4731;49.708;10.816;2022-12-18T02:47:33;-11.90;99.90
9383;DHT22;4731;49.708;10.816;2022-12-18T02:50:07;-11.50;99.90
9383;DHT22;4731;49.708;10.816;2022-12-18T02:52:41;-11.40;99.90
9383;DHT22;4731;49.708;10.816;2022-12-18T02:55:23;-11.90;99.90
9383;DHT22;4731;49.708;10.816;2022-12-18T02:57:58;-12.00;99.90
9383;DHT22;4731;49.708;10.816;2022-12-18T03:00:31;-12.00;99.90
9383;DHT22;4731;49.708;10.816;2022-12-18T03:03:05;-11.60;99.90
9383;DHT22;4731;49.708;10.816;2022-12-18T03:05:38;-11.30;99.90
9383;DHT22;4731;49.708;10.816;2022-12-18T03:08:10;-12.10;99.90
9383;DHT22;4731;49.708;10.816;2022-12-18T03:17:13;-12.30;99.90
9383;DHT22;4731;49.708;10.816;2022-12-18T03:19:43;-11.60;99.90
9383;DHT22;4731;49.708;10.816;2022-12-18T03:22:10;-12.60;99.90
9383;DHT22;4731;49.708;10.816;2022-12-18T03:24:37;-12.70;99.90
9383;DHT22;4731;49.708;10.816;2022-12-18T03:27:09;-12.70;99.90
9383;DHT22;4731;49.708;10.816;2022-12-18T03:29:40;-12.90;99.90
9383;DHT22;4731;49.708;10.816;2022-12-18T03:32:12;-12.90;99.90
9383;DHT22;4731;49.708;10.816;2022-12-18T03:34:42;-12.90;99.90
9383;DHT22;4731;49.708;10.816;2022-12-18T03:37:10;-11.80;99.90
9383;DHT22;4731;49.708;10.816;2022-12-18T03:39:37;-12.70;99.90
9383;DHT22;4731;49.708;10.816;2022-12-18T03:42:08;-12.50;99.90
9383;DHT22;4731;49.708;10.816;2022-12-18T03:44:42;-12.40;99.90
9383;DHT22;4731;49.708;10.816;2022-12-18T03:47:15;-12.30;99.90
9383;DHT22;4731;49.708;10.816;2022-12-18T03:49:48;-12.20;99.90
9383;DHT22;4731;49.708;10.816;2022-12-18T03:52:21;-11.70;99.90
9383;DHT22;4731;49.708;10.816;2022-12-18T03:54:49;-11.90;99.90
9383;DHT22;4731;49.708;10.816;2022-12-18T03:57:19;-11.80;99.90
9383;DHT22;4731;49.708;10.816;2022-12-18T03:59:49;-10.90;99.90
9383;DHT22;4731;49.708;10.816;2022-12-18T04:02:18;-11.60;99.90
9383;DHT22;4731;49.708;10.816;2022-12-18T04:04:46;-11.40;99.90
9383;DHT22;4731;49.708;10.816;2022-12-18T04:07:14;-11.30;99.90
9383;DHT22;4731;49.708;10.816;2022-12-18T04:09:43;-11.30;99.90
9383;DHT22;4731;49.708;10.816;2022-12-18T04:12:12;-11.10;99.90
9383;DHT22;4731;49.708;10.816;2022-12-18T04:14:38;-11.00;99.90
9383;DHT22;4731;49.708;10.816;2022-12-18T04:17:05;-10.90;99.90
9383;DHT22;4731;49.708;10.816;2022-12-18T04:19:33;-10.90;99.90
9383;DHT22;4731;49.708;10.816;2022-12-18T04:22:00;-10.70;99.90
9383;DHT22;4731;49.708;10.816;2022-12-18T04:24:27;-10.70;99.90
9383;DHT22;4731;49.708;10.816;2022-12-18T04:26:54;-10.60;99.90
9383;DHT22;4731;49.708;10.816;2022-12-18T04:29:20;-10.60;99.90
9383;DHT22;4731;49.708;10.816;2022-12-18T04:31:47;-10.50;99.90
9383;DHT22;4731;49.708;10.816;2022-12-18T04:34:14;-10.40;99.90
9383;DHT22;4731;49.708;10.816;2022-12-18T04:36:42;-10.30;99.90
9383;DHT22;4731;49.708;10.816;2022-12-18T04:39:09;-10.20;99.90
9383;DHT22;4731;49.708;10.816;2022-12-18T04:41:36;-10.20;99.90
9383;DHT22;4731;49.708;10.816;2022-12-18T04:44:03;-10.10;99.90
9383;DHT22;4731;49.708;10.816;2022-12-18T04:46:30;-10.00;99.90
9383;DHT22;4731;49.708;10.816;2022-12-18T04:48:57;-10.00;99.90
9383;DHT22;4731;49.708;10.816;2022-12-18T04:51:24;-9.90;99.90
9383;DHT22;4731;49.708;10.816;2022-12-18T04:53:52;-9.90;99.90
9383;DHT22;4731;49.708;10.816;2022-12-18T04:56:19;-9.80;99.90
9383;DHT22;4731;49.708;10.816;2022-12-18T04:58:46;-9.60;99.90
9383;DHT22;4731;49.708;10.816;2022-12-18T05:01:15;-9.70;99.90
9383;DHT22;4731;49.708;10.816;2022-12-18T05:03:42;-9.60;99.90
9383;DHT22;4731;49.708;10.816;2022-12-18T05:06:09;-9.60;99.90
9383;DHT22;4731;49.708;10.816;2022-12-18T05:08:36;-8.20;99.90
9383;DHT22;4731;49.708;10.816;2022-12-18T05:11:06;-9.40;99.90
9383;DHT22;4731;49.708;10.816;2022-12-18T05:13:34;-9.30;99.90
9383;DHT22;4731;49.708;10.816;2022-12-18T05:16:01;-9.30;99.90
9383;DHT22;4731;49.708;10.816;2022-12-18T05:18:28;-9.20;99.90
9383;DHT22;4731;49.708;10.816;2022-12-18T05:20:55;-9.10;99.90
9383;DHT22;4731;49.708;10.816;2022-12-18T05:23:23;-9.00;99.90
9383;DHT22;4731;49.708;10.816;2022-12-18T05:25:51;-8.90;99.90
9383;DHT22;4731;49.708;10.816;2022-12-18T05:28:21;-8.80;99.90
9383;DHT22;4731;49.708;10.816;2022-12-18T05:30:48;-8.60;99.90
9383;DHT22;4731;49.708;10.816;2022-12-18T05:33:16;-8.60;99.90
9383;DHT22;4731;49.708;10.816;2022-12-18T05:35:43;-8.60;99.90
9383;DHT22;4731;49.708;10.816;2022-12-18T05:38:10;-8.40;99.90
9383;DHT22;4731;49.708;10.816;2022-12-18T05:40:41;-8.40;99.90
9383;DHT22;4731;49.708;10.816;2022-12-18T05:43:08;-8.20;99.90
9383;DHT22;4731;49.708;10.816;2022-12-18T05:45:38;-8.20;99.90
9383;DHT22;4731;49.708;10.816;2022-12-18T05:48:05;-8.10;99.90
9383;DHT22;4731;49.708;10.816;2022-12-18T05:50:34;-8.00;99.90
9383;DHT22;4731;49.708;10.816;2022-12-18T05:53:01;-8.00;99.90
9383;DHT22;4731;49.708;10.816;2022-12-18T05:55:28;-8.00;99.90
9383;DHT22;4731;49.708;10.816;2022-12-18T05:57:54;-7.90;99.90
9383;DHT22;4731;49.708;10.816;2022-12-18T06:00:21;-8.00;99.90
9383;DHT22;4731;49.708;10.816;2022-12-18T06:02:49;-8.00;99.90
9383;DHT22;4731;49.708;10.816;2022-12-18T06:05:16;-7.90;99.90
9383;DHT22;4731;49.708;10.816;2022-12-18T06:07:43;-7.90;99.90
9383;DHT22;4731;49.708;10.816;2022-12-18T06:10:10;-7.90;99.90
9383;DHT22;4731;49.708;10.816;2022-12-18T06:12:37;-7.90;99.90
9383;DHT22;4731;49.708;10.816;2022-12-18T06:15:04;-7.90;99.90
9383;DHT22;4731;49.708;10.816;2022-12-18T06:17:32;-7.90;99.90
9383;DHT22;4731;49.708;10.816;2022-12-18T06:20:00;-7.90;99.90
9383;DHT22;4731;49.708;10.816;2022-12-18T06:22:27;-8.00;99.90
9383;DHT22;4731;49.708;10.816;2022-12-18T06:24:54;-8.00;99.90
9383;DHT22;4731;49.708;10.816;2022-12-18T06:27:21;-8.00;99.90
9383;DHT22;4731;49.708;10.816;2022-12-18T06:29:48;-8.00;99.90
9383;DHT22;4731;49.708;10.816;2022-12-18T06:32:14;-8.10;99.90
9383;DHT22;4731;49.708;10.816;2022-12-18T06:34:42;-8.00;99.90
9383;DHT22;4731;49.708;10.816;2022-12-18T06:37:10;-8.00;99.90
9383;DHT22;4731;49.708;10.816;2022-12-18T06:39:38;-8.00;99.90
9383;DHT22;4731;49.708;10.816;2022-12-18T06:42:05;-7.90;99.90
9383;DHT22;4731;49.708;10.816;2022-12-18T06:44:31;-7.90;99.90
9383;DHT22;4731;49.708;10.816;2022-12-18T06:49:34;-7.90;99.90
9383;DHT22;4731;49.708;10.816;2022-12-18T06:52:00;-8.00;99.90
9383;DHT22;4731;49.708;10.816;2022-12-18T06:54:28;-7.90;99.90
9383;DHT22;4731;49.708;10.816;2022-12-18T06:56:55;-7.80;99.90
9383;DHT22;4731;49.708;10.816;2022-12-18T06:59:22;-7.80;99.90
9383;DHT22;4731;49.708;10.816;2022-12-18T07:01:49;-7.80;99.90
9383;DHT22;4731;49.708;10.816;2022-12-18T07:04:15;-7.80;99.90
9383;DHT22;4731;49.708;10.816;2022-12-18T07:06:42;-7.80;99.90
9383;DHT22;4731;49.708;10.816;2022-12-18T07:09:09;-7.70;99.90
9383;DHT22;4731;49.708;10.816;2022-12-18T07:11:37;-7.70;99.90
9383;DHT22;4731;49.708;10.816;2022-12-18T07:14:04;-7.70;99.90
9383;DHT22;4731;49.708;10.816;2022-12-18T07:16:31;-7.60;99.90
9383;DHT22;4731;49.708;10.816;2022-12-18T07:18:57;-7.50;99.90
9383;DHT22;4731;49.708;10.816;2022-12-18T07:21:24;-7.60;99.90
9383;DHT22;4731;49.708;10.816;2022-12-18T07:23:51;-7.40;99.90
9383;DHT22;4731;49.708;10.816;2022-12-18T07:26:19;-7.50;99.90
9383;DHT22;4731;49.708;10.816;2022-12-18T07:28:48;-7.30;99.90
9383;DHT22;4731;49.708;10.816;2022-12-18T07:31:17;-5.40;99.90
9383;DHT22;4731;49.708;10.816;2022-12-18T07:33:45;-7.30;99.90
9383;DHT22;4731;49.708;10.816;2022-12-18T07:36:13;-7.30;99.90
9383;DHT22;4731;49.708;10.816;2022-12-18T07:38:40;-7.30;99.90
9383;DHT22;4731;49.708;10.816;2022-12-18T07:41:09;-7.30;99.90
9383;DHT22;4731;49.708;10.816;2022-12-18T07:43:37;-7.20;99.90
9383;DHT22;4731;49.708;10.816;2022-12-18T07:46:06;-7.00;99.90
9383;DHT22;4731;49.708;10.816;2022-12-18T07:48:33;-7.20;99.90
9383;DHT22;4731;49.708;10.816;2022-12-18T07:51:01;-7.20;99.90
9383;DHT22;4731;49.708;10.816;2022-12-18T07:53:29;-7.10;99.90
9383;DHT22;4731;49.708;10.816;2022-12-18T07:55:56;-7.00;99.90
9383;DHT22;4731;49.708;10.816;2022-12-18T07:58:23;-7.00;99.90
9383;DHT22;4731;49.708;10.816;2022-12-18T08:00:51;-7.00;99.90
9383;DHT22;4731;49.708;10.816;2022-12-18T08:03:20;-7.00;99.90
9383;DHT22;4731;49.708;10.816;2022-12-18T08:05:47;-6.90;99.90
9383;DHT22;4731;49.708;10.816;2022-12-18T08:08:14;-6.90;99.90
9383;DHT22;4731;49.708;10.816;2022-12-18T08:10:40;-6.90;99.90
9383;DHT22;4731;49.708;10.816;2022-12-18T08:13:07;-7.00;99.90
9383;DHT22;4731;49.708;10.816;2022-12-18T08:15:34;-7.00;99.90
9383;DHT22;4731;49.708;10.816;2022-12-18T08:18:01;-6.80;99.90
9383;DHT22;4731;49.708;10.816;2022-12-18T08:20:29;-6.70;99.90
9383;DHT22;4731;49.708;10.816;2022-12-18T08:22:56;-6.70;99.90
9383;DHT22;4731;49.708;10.816;2022-12-18T08:25:23;-6.60;99.90
9383;DHT22;4731;49.708;10.816;2022-12-18T08:27:50;-6.60;99.90
9383;DHT22;4731;49.708;10.816;2022-12-18T08:30:17;-6.50;99.90
9383;DHT22;4731;49.708;10.816;2022-12-18T08:32:44;-6.40;99.90
9383;DHT22;4731;49.708;10.816;2022-12-18T08:35:11;-6.40;99.90
9383;DHT22;4731;49.708;10.816;2022-12-18T08:37:46;-6.40;99.90
9383;DHT22;4731;49.708;10.816;2022-12-18T08:40:15;-6.30;99.90
9383;DHT22;4731;49.708;10.816;2022-12-18T08:42:42;-6.20;99.90
9383;DHT22;4731;49.708;10.816;2022-12-18T08:45:27;-6.20;99.90
9383;DHT22;4731;49.708;10.816;2022-12-18T08:47:54;-6.00;99.90
9383;DHT22;4731;49.708;10.816;2022-12-18T08:50:21;-6.00;99.90
9383;DHT22;4731;49.708;10.816;2022-12-18T08:52:49;-5.80;99.90
9383;DHT22;4731;49.708;10.816;2022-12-18T08:55:16;-6.90;99.90
9383;DHT22;4731;49.708;10.816;2022-12-18T08:57:43;-5.90;99.90
9383;DHT22;4731;49.708;10.816;2022-12-18T09:00:11;-5.90;99.90
9383;DHT22;4731;49.708;10.816;2022-12-18T09:02:38;-5.80;99.90
9383;DHT22;4731;49.708;10.816;2022-12-18T09:05:05;-5.70;99.90
9383;DHT22;4731;49.708;10.816;2022-12-18T09:07:32;-5.70;99.90
9383;DHT22;4731;49.708;10.816;2022-12-18T09:10:01;-5.70;99.90
9383;DHT22;4731;49.708;10.816;2022-12-18T09:12:28;-5.60;99.90
9383;DHT22;4731;49.708;10.816;2022-12-18T09:14:55;-5.70;99.90
9383;DHT22;4731;49.708;10.816;2022-12-18T09:17:22;-5.50;99.90
9383;DHT22;4731;49.708;10.816;2022-12-18T09:19:49;-5.40;99.90
9383;DHT22;4731;49.708;10.816;2022-12-18T09:22:15;-5.50;99.90
9383;DHT22;4731;49.708;10.816;2022-12-18T09:24:42;-5.40;99.90
9383;DHT22;4731;49.708;10.816;2022-12-18T09:27:11;-5.30;99.90
9383;DHT22;4731;49.708;10.816;2022-12-18T09:29:38;-5.30;99.90
9383;DHT22;4731;49.708;10.816;2022-12-18T09:32:05;-5.30;99.90
9383;DHT22;4731;49.708;10.816;2022-12-18T09:34:32;-5.00;99.90
9383;DHT22;4731;49.708;10.816;2022-12-18T09:36:59;-5.20;99.90
9383;DHT22;4731;49.708;10.816;2022-12-18T09:39:26;-5.10;99.90
9383;DHT22;4731;49.708;10.816;2022-12-18T09:41:54;-5.10;99.90
9383;DHT22;4731;49.708;10.816;2022-12-18T09:44:25;-5.10;99.90
9383;DHT22;4731;49.708;10.816;2022-12-18T09:47:08;-5.00;99.90
9383;DHT22;4731;49.708;10.816;2022-12-18T09:49:40;-5.00;99.90
9383;DHT22;4731;49.708;10.816;2022-12-18T09:52:11;-5.00;99.90
9383;DHT22;4731;49.708;10.816;2022-12-18T09:54:41;-3.50;99.90
9383;DHT22;4731;49.708;10.816;2022-12-18T09:57:14;-4.80;99.90
9383;DHT22;4731;49.708;10.816;2022-12-18T09:59:46;-4.80;99.90
9383;DHT22;4731;49.708;10.816;2022-12-18T10:02:16;-4.70;99.90
9383;DHT22;4731;49.708;10.816;2022-12-18T10:04:48;-3.90;99.90
9383;DHT22;4731;49.708;10.816;2022-12-18T10:07:20;-4.60;99.90
9383;DHT22;4731;49.708;10.816;2022-12-18T10:09:57;-4.30;99.90
9383;DHT22;4731;49.708;10.816;2022-12-18T10:12:30;-4.40;99.90
9383;DHT22;4731;49.708;10.816;2022-12-18T10:15:06;-4.40;99.90
9383;DHT22;4731;49.708;10.816;2022-12-18T10:17:40;-4.30;99.90
9383;DHT22;4731;49.708;10.816;2022-12-18T10:20:14;-4.10;99.90
9383;DHT22;4731;49.708;10.816;2022-12-18T10:22:50;-4.10;99.90
9383;DHT22;4731;49.708;10.816;2022-12-18T10:25:22;-4.10;99.90
9383;DHT22;4731;49.708;10.816;2022-12-18T10:27:53;-3.90;99.90
9383;DHT22;4731;49.708;10.816;2022-12-18T10:30:23;-3.90;99.90
9383;DHT22;4731;49.708;10.816;2022-12-18T10:32:51;-4.00;99.90
9383;DHT22;4731;49.708;10.816;2022-12-18T10:35:20;-4.00;99.90
9383;DHT22;4731;49.708;10.816;2022-12-18T10:38:03;-3.80;99.90
9383;DHT22;4731;49.708;10.816;2022-12-18T10:40:30;-2.60;99.90
9383;DHT22;4731;49.708;10.816;2022-12-18T10:43:05;-4.00;99.90
9383;DHT22;4731;49.708;10.816;2022-12-18T10:45:34;-3.90;99.90
9383;DHT22;4731;49.708;10.816;2022-12-18T10:48:01;-3.80;99.90
9383;DHT22;4731;49.708;10.816;2022-12-18T10:50:30;-3.70;99.90
9383;DHT22;4731;49.708;10.816;2022-12-18T10:52:59;-3.90;99.90
9383;DHT22;4731;49.708;10.816;2022-12-18T10:55:31;-3.70;99.90
9383;DHT22;4731;49.708;10.816;2022-12-18T10:58:15;-3.10;99.90
9383;DHT22;4731;49.708;10.816;2022-12-18T11:00:47;-3.60;99.90
9383;DHT22;4731;49.708;10.816;2022-12-18T11:03:32;-3.50;99.90
9383;DHT22;4731;49.708;10.816;2022-12-18T11:06:06;-3.50;99.90
9383;DHT22;4731;49.708;10.816;2022-12-18T11:08:35;-3.60;99.90
9383;DHT22;4731;49.708;10.816;2022-12-18T11:11:07;-3.40;99.90
9383;DHT22;4731;49.708;10.816;2022-12-18T11:13:34;-3.00;99.90
9383;DHT22;4731;49.708;10.816;2022-12-18T11:16:03;-3.00;99.90
9383;DHT22;4731;49.708;10.816;2022-12-18T11:18:32;-2.50;99.90
9383;DHT22;4731;49.708;10.816;2022-12-18T11:21:05;-1.70;99.90
9383;DHT22;4731;49.708;10.816;2022-12-18T11:23:35;-1.30;99.90
9383;DHT22;4731;49.708;10.816;2022-12-18T11:26:04;-0.90;99.90
9383;DHT22;4731;49.708;10.816;2022-12-18T11:28:40;-0.80;99.90
9383;DHT22;4731;49.708;10.816;2022-12-18T11:31:18;-1.00;99.90
9383;DHT22;4731;49.708;10.816;2022-12-18T11:33:50;-1.70;99.90
9383;DHT22;4731;49.708;10.816;2022-12-18T11:36:21;-1.30;99.90
9383;DHT22;4731;49.708;10.816;2022-12-18T11:38:50;-1.70;99.90
9383;DHT22;4731;49.708;10.816;2022-12-18T11:41:23;-1.70;99.90
9383;DHT22;4731;49.708;10.816;2022-12-18T11:44:15;-0.90;99.90
9383;DHT22;4731;49.708;10.816;2022-12-18T11:46:51;-0.40;99.90
9383;DHT22;4731;49.708;10.816;2022-12-18T11:49:22;0.90;99.90
9383;DHT22;4731;49.708;10.816;2022-12-18T11:51:53;2.30;99.90
9383;DHT22;4731;49.708;10.816;2022-12-18T11:54:21;2.90;99.90
9383;DHT22;4731;49.708;10.816;2022-12-18T11:56:51;3.40;99.90
9383;DHT22;4731;49.708;10.816;2022-12-18T11:59:26;5.70;99.90
9383;DHT22;4731;49.708;10.816;2022-12-18T12:01:59;2.50;99.90
9383;DHT22;4731;49.708;10.816;2022-12-18T12:04:41;1.90;99.90
9383;DHT22;4731;49.708;10.816;2022-12-18T12:07:21;2.50;99.90
9383;DHT22;4731;49.708;10.816;2022-12-18T12:10:00;2.90;99.90
9383;DHT22;4731;49.708;10.816;2022-12-18T12:12:36;2.00;99.90
9383;DHT22;4731;49.708;10.816;2022-12-18T12:15:20;1.40;99.90
9383;DHT22;4731;49.708;10.816;2022-12-18T12:17:57;1.70;99.90
9383;DHT22;4731;49.708;10.816;2022-12-18T12:20:37;2.00;99.90
9383;DHT22;4731;49.708;10.816;2022-12-18T12:23:15;2.50;99.90
9383;DHT22;4731;49.708;10.816;2022-12-18T12:25:50;1.90;99.90
9383;DHT22;4731;49.708;10.816;2022-12-18T12:28:28;0.90;99.90
9383;DHT22;4731;49.708;10.816;2022-12-18T12:31:04;0.70;99.90
9383;DHT22;4731;49.708;10.816;2022-12-18T12:33:42;1.20;99.90
9383;DHT22;4731;49.708;10.816;2022-12-18T12:36:21;2.10;99.90
9383;DHT22;4731;49.708;10.816;2022-12-18T12:38:54;2.10;99.90
9383;DHT22;4731;49.708;10.816;2022-12-18T12:41:23;1.50;99.90
9383;DHT22;4731;49.708;10.816;2022-12-18T12:44:14;1.50;99.90
9383;DHT22;4731;49.708;10.816;2022-12-18T12:46:41;2.10;99.90
9383;DHT22;4731;49.708;10.816;2022-12-18T12:49:13;1.90;99.90
9383;DHT22;4731;49.708;10.816;2022-12-18T12:51:43;1.00;99.90
9383;DHT22;4731;49.708;10.816;2022-12-18T12:54:14;-0.40;99.90
9383;DHT22;4731;49.708;10.816;2022-12-18T12:56:46;0.20;99.90
9383;DHT22;4731;49.708;10.816;2022-12-18T12:59:19;0.40;99.90
9383;DHT22;4731;49.708;10.816;2022-12-18T13:01:53;0.50;99.90
9383;DHT22;4731;49.708;10.816;2022-12-18T13:04:29;0.40;99.90
9383;DHT22;4731;49.708;10.816;2022-12-18T13:07:04;0.40;99.90
9383;DHT22;4731;49.708;10.816;2022-12-18T13:09:33;0.10;99.90
9383;DHT22;4731;49.708;10.816;2022-12-18T13:12:03;0.20;99.90
9383;DHT22;4731;49.708;10.816;2022-12-18T13:17:26;0.00;99.90
9383;DHT22;4731;49.708;10.816;2022-12-18T13:20:09;0.20;99.90
9383;DHT22;4731;49.708;10.816;2022-12-18T13:22:38;0.00;99.90
9383;DHT22;4731;49.708;10.816;2022-12-18T13:25:27;-0.10;99.90
9383;DHT22;4731;49.708;10.816;2022-12-18T13:28:03;-0.30;99.90
9383;DHT22;4731;49.708;10.816;2022-12-18T13:30:51;-0.60;99.90
9383;DHT22;4731;49.708;10.816;2022-12-18T13:33:50;-1.00;99.90
9383;DHT22;4731;49.708;10.816;2022-12-18T13:36:36;-1.00;99.90
9383;DHT22;4731;49.708;10.816;2022-12-18T13:39:23;-1.10;99.90
9383;DHT22;4731;49.708;10.816;2022-12-18T13:41:53;-1.10;99.90
9383;DHT22;4731;49.708;10.816;2022-12-18T13:44:27;-0.70;99.90
9383;DHT22;4731;49.708;10.816;2022-12-18T13:46:56;-0.60;99.90
9383;DHT22;4731;49.708;10.816;2022-12-18T13:49:27;-0.90;99.90
9383;DHT22;4731;49.708;10.816;2022-12-18T13:51:58;-1.20;99.90
9383;DHT22;4731;49.708;10.816;2022-12-18T13:54:30;-1.30;99.90
9383;DHT22;4731;49.708;10.816;2022-12-18T13:56:59;-1.10;99.90
9383;DHT22;4731;49.708;10.816;2022-12-18T13:59:34;-1.20;99.90
9383;DHT22;4731;49.708;10.816;2022-12-18T14:02:12;-1.30;99.90
9383;DHT22;4731;49.708;10.816;2022-12-18T14:04:40;-1.40;99.90
9383;DHT22;4731;49.708;10.816;2022-12-18T14:07:12;-1.50;99.90
9383;DHT22;4731;49.708;10.816;2022-12-18T14:09:42;-1.60;99.90
9383;DHT22;4731;49.708;10.816;2022-12-18T14:12:17;-1.90;99.90
9383;DHT22;4731;49.708;10.816;2022-12-18T14:15:03;-1.70;99.90
9383;DHT22;4731;49.708;10.816;2022-12-18T14:17:31;-1.60;99.90
9383;DHT22;4731;49.708;10.816;2022-12-18T14:19:58;-1.70;99.90
9383;DHT22;4731;49.708;10.816;2022-12-18T14:22:26;-1.60;99.90
9383;DHT22;4731;49.708;10.816;2022-12-18T14:25:16;-1.80;99.90
9383;DHT22;4731;49.708;10.816;2022-12-18T14:27:45;-1.80;99.90
9383;DHT22;4731;49.708;10.816;2022-12-18T14:30:28;-1.90;99.90
9383;DHT22;4731;49.708;10.816;2022-12-18T14:33:03;-2.00;99.90
9383;DHT22;4731;49.708;10.816;2022-12-18T14:35:30;-2.10;99.90
9383;DHT22;4731;49.708;10.816;2022-12-18T14:38:15;-2.20;99.90
9383;DHT22;4731;49.708;10.816;2022-12-18T14:40:45;-2.10;99.90
9383;DHT22;4731;49.708;10.816;2022-12-18T14:43:13;-2.30;99.90
9383;DHT22;4731;49.708;10.816;2022-12-18T14:45:42;-2.40;99.90
9383;DHT22;4731;49.708;10.816;2022-12-18T14:48:15;-2.40;99.90
9383;DHT22;4731;49.708;10.816;2022-12-18T14:50:43;-2.40;99.90
9383;DHT22;4731;49.708;10.816;2022-12-18T14:53:22;-1.20;99.90
9383;DHT22;4731;49.708;10.816;2022-12-18T14:55:50;-2.60;99.90
9383;DHT22;4731;49.708;10.816;2022-12-18T14:58:17;-2.60;99.90
9383;DHT22;4731;49.708;10.816;2022-12-18T15:00:44;-2.60;99.90
9383;DHT22;4731;49.708;10.816;2022-12-18T15:03:15;-2.70;99.90
9383;DHT22;4731;49.708;10.816;2022-12-18T15:05:43;-2.70;99.90
9383;DHT22;4731;49.708;10.816;2022-12-18T15:08:31;-2.90;99.90
9383;DHT22;4731;49.708;10.816;2022-12-18T15:11:00;-3.00;99.90
9383;DHT22;4731;49.708;10.816;2022-12-18T15:13:27;-3.00;99.90
9383;DHT22;4731;49.708;10.816;2022-12-18T15:15:55;-3.50;99.90
9383;DHT22;4731;49.708;10.816;2022-12-18T15:18:29;-3.10;99.90
9383;DHT22;4731;49.708;10.816;2022-12-18T15:20:58;-3.10;99.90
9383;DHT22;4731;49.708;10.816;2022-12-18T15:23:27;-3.20;99.90
9383;DHT22;4731;49.708;10.816;2022-12-18T15:25:58;-3.30;99.90
9383;DHT22;4731;49.708;10.816;2022-12-18T15:28:27;-3.30;99.90
9383;DHT22;4731;49.708;10.816;2022-12-18T15:31:17;-3.30;99.90
9383;DHT22;4731;49.708;10.816;2022-12-18T15:34:05;-3.30;99.90
9383;DHT22;4731;49.708;10.816;2022-12-18T15:36:32;-3.40;99.90
9383;DHT22;4731;49.708;10.816;2022-12-18T15:39:02;-3.40;99.90
9383;DHT22;4731;49.708;10.816;2022-12-18T15:41:32;-3.40;99.90
9383;DHT22;4731;49.708;10.816;2022-12-18T15:44:00;-3.50;99.90
9383;DHT22;4731;49.708;10.816;2022-12-18T15:46:26;-0.80;99.90
9383;DHT22;4731;49.708;10.816;2022-12-18T15:48:54;-3.40;99.90
9383;DHT22;4731;49.708;10.816;2022-12-18T15:51:22;-3.40;99.90
9383;DHT22;4731;49.708;10.816;2022-12-18T15:53:58;-3.40;99.90
9383;DHT22;4731;49.708;10.816;2022-12-18T15:56:26;-3.50;99.90
9383;DHT22;4731;49.708;10.816;2022-12-18T15:59:13;-3.50;99.90
9383;DHT22;4731;49.708;10.816;2022-12-18T16:01:41;-3.50;99.90
9383;DHT22;4731;49.708;10.816;2022-12-18T16:04:10;-2.70;99.90
9383;DHT22;4731;49.708;10.816;2022-12-18T16:06:38;-3.50;99.90
9383;DHT22;4731;49.708;10.816;2022-12-18T16:09:05;-3.50;99.90
9383;DHT22;4731;49.708;10.816;2022-12-18T16:11:34;-3.50;99.90
9383;DHT22;4731;49.708;10.816;2022-12-18T16:14:17;-3.60;99.90
9383;DHT22;4731;49.708;10.816;2022-12-18T16:16:45;-3.70;99.90
9383;DHT22;4731;49.708;10.816;2022-12-18T16:19:12;-3.80;99.90